createdAt,value
2018-06-28T00:00:12.908Z,18.68
2018-06-28T00:01:12.894Z,18.67
2018-06-28T00:02:12.886Z,18.70
2018-06-28T00:03:12.873Z,18.68
2018-06-28T00:04:12.876Z,18.63
2018-06-28T00:05:12.855Z,18.58
2018-06-28T00:06:12.841Z,18.60
2018-06-28T00:07:12.832Z,18.66
2018-06-28T00:08:12.820Z,18.68
2018-06-28T00:09:12.829Z,18.63
2018-06-28T00:10:12.802Z,18.67
2018-06-28T00:11:12.787Z,18.63
2018-06-28T00:12:12.776Z,18.62
2018-06-28T00:13:12.767Z,18.66
2018-06-28T00:14:12.768Z,18.70
2018-06-28T00:15:12.744Z,18.67
2018-06-28T00:16:12.732Z,18.62
2018-06-28T00:17:12.722Z,18.53
2018-06-28T00:18:12.742Z,18.66
2018-06-28T00:19:12.713Z,18.55
2018-06-28T00:20:12.694Z,18.56
2018-06-28T00:21:12.680Z,18.66
2018-06-28T00:22:12.671Z,18.56
2018-06-28T00:23:12.657Z,18.58
2018-06-28T00:24:12.680Z,18.53
2018-06-28T00:25:12.635Z,18.52
2018-06-28T00:26:12.624Z,18.46
2018-06-28T00:27:12.615Z,18.49
2018-06-28T00:28:12.601Z,18.48
2018-06-28T00:29:12.590Z,18.44
2018-06-28T00:30:12.599Z,18.40
2018-06-28T00:31:12.568Z,18.35
2018-06-28T00:32:12.558Z,18.43
2018-06-28T00:33:12.546Z,18.49
2018-06-28T00:34:12.536Z,18.28
2018-06-28T00:35:12.541Z,18.33
2018-06-28T00:36:12.514Z,18.38
2018-06-28T00:37:12.503Z,18.31
2018-06-28T00:38:12.495Z,18.33
2018-06-28T00:39:12.483Z,18.26
2018-06-28T00:40:12.481Z,18.28
2018-06-28T00:41:12.460Z,18.25
2018-06-28T00:42:12.445Z,18.37
2018-06-28T00:43:12.436Z,18.34
2018-06-28T00:44:12.428Z,18.25
2018-06-28T00:45:12.452Z,18.35
2018-06-28T00:46:12.403Z,18.25
2018-06-28T00:47:12.395Z,18.30
2018-06-28T00:48:12.379Z,18.34
2018-06-28T00:49:12.369Z,18.16
2018-06-28T00:50:12.361Z,18.20
2018-06-28T00:51:12.366Z,18.22
2018-06-28T00:52:12.336Z,18.26
2018-06-28T00:53:12.324Z,18.19
2018-06-28T00:54:12.314Z,18.19
2018-06-28T00:55:12.302Z,18.20
2018-06-28T00:56:12.307Z,18.23
2018-06-28T00:57:12.280Z,18.19
2018-06-28T00:58:12.271Z,18.19
2018-06-28T00:59:12.259Z,18.13
2018-06-28T01:00:12.246Z,18.10
2018-06-28T01:01:12.250Z,18.12
2018-06-28T01:02:12.224Z,18.12
2018-06-28T01:03:12.216Z,18.12
2018-06-28T01:04:12.202Z,18.13
2018-06-28T01:05:12.194Z,18.13
2018-06-28T01:06:12.193Z,18.13
2018-06-28T01:07:12.172Z,18.09
2018-06-28T01:08:12.158Z,18.10
2018-06-28T01:09:12.152Z,18.07
2018-06-28T01:10:12.136Z,18.07
2018-06-28T01:11:12.141Z,18.01
2018-06-28T01:12:12.114Z,17.93
2018-06-28T01:13:12.124Z,17.93
2018-06-28T01:14:12.092Z,17.97
2018-06-28T01:15:12.080Z,17.97
2018-06-28T01:16:12.069Z,17.94
2018-06-28T01:17:12.071Z,17.97
2018-06-28T01:18:12.053Z,17.79
2018-06-28T01:19:12.036Z,17.86
2018-06-28T01:20:12.025Z,17.86
2018-06-28T01:21:12.014Z,17.88
2018-06-28T01:22:12.017Z,17.80
2018-06-28T01:23:11.993Z,17.85
2018-06-28T01:24:11.984Z,17.86
2018-06-28T01:25:11.971Z,17.82
2018-06-28T01:26:11.960Z,17.79
2018-06-28T01:27:11.963Z,17.83
2018-06-28T01:28:11.936Z,17.85
2018-06-28T01:29:11.926Z,17.88
2018-06-28T01:30:11.922Z,17.83
2018-06-28T01:31:11.903Z,17.83
2018-06-28T01:32:11.908Z,17.73
2018-06-28T01:33:11.884Z,17.76
2018-06-28T01:34:11.873Z,17.76
2018-06-28T01:35:11.865Z,17.68
2018-06-28T01:36:11.854Z,17.63
2018-06-28T01:37:11.858Z,17.67
2018-06-28T01:38:11.829Z,17.64
2018-06-28T01:39:11.818Z,17.59
2018-06-28T01:40:11.804Z,17.67
2018-06-28T01:41:11.795Z,17.67
2018-06-28T01:42:11.790Z,17.59
2018-06-28T01:43:11.792Z,17.59
2018-06-28T01:44:11.766Z,17.59
2018-06-28T01:45:11.750Z,17.57
2018-06-28T01:46:11.741Z,17.54
2018-06-28T01:47:11.730Z,17.64
2018-06-28T01:48:11.729Z,17.59
2018-06-28T01:49:11.705Z,17.57
2018-06-28T01:50:11.695Z,17.51
2018-06-28T01:51:11.685Z,17.49
2018-06-28T01:52:11.674Z,17.54
2018-06-28T01:53:11.678Z,17.49
2018-06-28T01:54:11.666Z,17.49
2018-06-28T01:55:11.640Z,17.51
2018-06-28T01:56:11.629Z,17.51
2018-06-28T01:57:11.617Z,17.60
2018-06-28T01:58:11.626Z,17.48
2018-06-28T01:59:11.598Z,17.48
2018-06-28T02:00:11.587Z,17.48
2018-06-28T02:01:11.575Z,17.44
2018-06-28T02:02:11.563Z,17.39
2018-06-28T02:03:11.553Z,17.41
2018-06-28T02:04:11.560Z,17.38
2018-06-28T02:05:11.532Z,17.30
2018-06-28T02:06:11.520Z,17.31
2018-06-28T02:07:11.509Z,17.23
2018-06-28T02:08:11.501Z,17.20
2018-06-28T02:09:11.517Z,17.20
2018-06-28T02:10:11.479Z,17.04
2018-06-28T02:11:11.468Z,17.09
2018-06-28T02:12:11.455Z,17.05
2018-06-28T02:13:11.447Z,17.06
2018-06-28T02:14:11.452Z,17.09
2018-06-28T02:15:11.424Z,17.12
2018-06-28T02:16:11.413Z,17.09
2018-06-28T02:17:11.403Z,17.06
2018-06-28T02:18:11.394Z,17.06
2018-06-28T02:19:11.381Z,17.12
2018-06-28T02:20:11.382Z,17.06
2018-06-28T02:21:11.364Z,17.08
2018-06-28T02:22:11.348Z,17.09
2018-06-28T02:23:11.338Z,17.12
2018-06-28T02:24:11.326Z,17.11
2018-06-28T02:25:11.330Z,17.02
2018-06-28T02:26:11.305Z,17.12
2018-06-28T02:27:11.306Z,17.11
2018-06-28T02:28:11.286Z,17.09
2018-06-28T02:29:11.278Z,17.19
2018-06-28T02:30:11.278Z,17.11
2018-06-28T02:31:11.252Z,17.14
2018-06-28T02:32:11.244Z,17.17
2018-06-28T02:33:11.229Z,17.11
2018-06-28T02:34:11.224Z,17.09
2018-06-28T02:35:11.228Z,17.08
2018-06-28T02:36:11.197Z,17.08
2018-06-28T02:37:11.186Z,17.05
2018-06-28T02:38:11.177Z,17.06
2018-06-28T02:39:11.164Z,16.98
2018-06-28T02:40:11.154Z,17.05
2018-06-28T02:41:11.156Z,17.01
2018-06-28T02:42:11.132Z,17.04
2018-06-28T02:43:11.122Z,16.98
2018-06-28T02:44:11.115Z,16.94
2018-06-28T02:45:11.099Z,16.99
2018-06-28T02:46:11.114Z,16.84
2018-06-28T02:47:11.077Z,16.89
2018-06-28T02:48:11.071Z,16.76
2018-06-28T02:49:11.062Z,16.80
2018-06-28T02:50:11.045Z,16.68
2018-06-28T02:51:11.034Z,16.74
2018-06-28T02:52:11.035Z,16.71
2018-06-28T02:53:11.013Z,16.74
2018-06-28T02:54:11.001Z,16.66
2018-06-28T02:55:10.994Z,16.66
2018-06-28T02:56:10.981Z,16.59
2018-06-28T02:57:10.979Z,16.66
2018-06-28T02:58:10.958Z,16.65
2018-06-28T02:59:10.947Z,16.62
2018-06-28T03:00:10.935Z,16.64
2018-06-28T03:01:10.925Z,16.65
2018-06-28T03:02:10.947Z,16.62
2018-06-28T03:03:10.902Z,16.62
2018-06-28T03:04:10.892Z,16.68
2018-06-28T03:05:10.883Z,16.69
2018-06-28T03:06:10.871Z,16.65
2018-06-28T03:07:10.861Z,16.59
2018-06-28T03:08:10.860Z,16.62
2018-06-28T03:09:10.836Z,16.65
2018-06-28T03:10:10.830Z,16.61
2018-06-28T03:11:10.825Z,16.59
2018-06-28T03:12:10.817Z,16.57
2018-06-28T03:13:10.792Z,16.64
2018-06-28T03:14:10.779Z,16.50
2018-06-28T03:15:10.772Z,16.51
2018-06-28T03:16:10.761Z,16.54
2018-06-28T03:17:10.748Z,16.53
2018-06-28T03:18:10.750Z,16.51
2018-06-28T03:19:10.725Z,16.50
2018-06-28T03:20:10.724Z,16.44
2018-06-28T03:21:10.703Z,16.46
2018-06-28T03:22:10.696Z,16.32
2018-06-28T03:23:10.694Z,16.47
2018-06-28T03:24:10.675Z,16.47
2018-06-28T03:25:10.662Z,16.47
2018-06-28T03:26:10.649Z,16.44
2018-06-28T03:27:10.644Z,16.46
2018-06-28T03:28:10.644Z,16.36
2018-06-28T03:29:10.622Z,16.39
2018-06-28T03:30:10.606Z,16.41
2018-06-28T03:31:10.618Z,16.41
2018-06-28T03:32:10.582Z,16.50
2018-06-28T03:33:10.595Z,16.39
2018-06-28T03:34:10.561Z,16.51
2018-06-28T03:35:10.552Z,16.46
2018-06-28T03:36:10.540Z,16.41
2018-06-28T03:37:10.529Z,16.50
2018-06-28T03:38:10.554Z,16.49
2018-06-28T03:39:10.506Z,16.41
2018-06-28T03:40:10.495Z,16.46
2018-06-28T03:41:10.489Z,16.41
2018-06-28T03:42:10.475Z,16.39
2018-06-28T03:43:10.464Z,16.38
2018-06-28T03:44:10.469Z,16.54
2018-06-28T03:45:10.444Z,16.65
2018-06-28T03:46:10.429Z,16.93
2018-06-28T03:47:10.418Z,17.33
2018-06-28T03:48:10.409Z,17.60
2018-06-28T03:49:10.411Z,18.03
2018-06-28T03:50:10.387Z,18.20
2018-06-28T03:51:10.377Z,18.38
2018-06-28T03:52:10.365Z,18.38
2018-06-28T03:53:10.355Z,18.30
2018-06-28T03:54:10.357Z,18.37
2018-06-28T03:55:10.329Z,18.67
2018-06-28T03:56:10.323Z,18.92
2018-06-28T03:57:10.308Z,19.16
2018-06-28T03:58:10.299Z,19.39
2018-06-28T03:59:10.299Z,19.59
2018-06-28T04:00:10.275Z,19.49
2018-06-28T04:01:10.264Z,19.45
2018-06-28T04:02:10.255Z,19.22
2018-06-28T04:03:10.244Z,19.12
2018-06-28T04:04:10.244Z,19.14
2018-06-28T04:05:10.223Z,19.33
2018-06-28T04:06:10.212Z,19.41
2018-06-28T04:07:10.201Z,19.74
2018-06-28T04:08:10.190Z,20.37
2018-06-28T04:09:10.196Z,20.95
2018-06-28T04:10:10.166Z,21.57
2018-06-28T04:11:10.156Z,21.90
2018-06-28T04:12:10.145Z,22.08
2018-06-28T04:13:10.135Z,21.98
2018-06-28T04:14:10.140Z,21.98
2018-06-28T04:15:10.113Z,22.38
2018-06-28T04:16:10.101Z,22.62
2018-06-28T04:17:10.090Z,22.38
2018-06-28T04:18:10.079Z,22.29
2018-06-28T04:19:10.069Z,22.20
2018-06-28T04:20:10.068Z,22.08
2018-06-28T04:21:10.047Z,21.95
2018-06-28T04:22:10.039Z,22.01
2018-06-28T04:23:10.027Z,22.17
2018-06-28T04:24:10.017Z,22.81
2018-06-28T04:25:10.027Z,23.33
2018-06-28T04:26:10.002Z,23.62
2018-06-28T04:27:09.982Z,23.80
2018-06-28T04:28:09.972Z,23.92
2018-06-28T04:29:09.959Z,24.13
2018-06-28T04:30:09.975Z,24.21
2018-06-28T04:31:09.939Z,24.45
2018-06-28T04:32:09.929Z,24.54
2018-06-28T04:33:09.918Z,24.74
2018-06-28T04:34:09.907Z,24.73
2018-06-28T04:35:09.894Z,24.91
2018-06-28T04:36:09.896Z,24.76
2018-06-28T04:37:09.873Z,24.62
2018-06-28T04:38:09.861Z,24.50
2018-06-28T04:39:09.855Z,25.00
2018-06-28T04:40:09.843Z,25.01
2018-06-28T04:41:09.842Z,25.03
2018-06-28T04:42:09.821Z,25.45
2018-06-28T04:43:09.808Z,25.75
2018-06-28T04:44:09.797Z,25.92
2018-06-28T04:45:09.786Z,25.95
2018-06-28T04:46:09.810Z,26.19
2018-06-28T04:47:09.765Z,26.50
2018-06-28T04:48:09.754Z,26.55
2018-06-28T04:49:09.743Z,26.45
2018-06-28T04:50:09.733Z,26.28
2018-06-28T04:51:09.721Z,26.34
2018-06-28T04:52:09.742Z,25.82
2018-06-28T04:53:09.700Z,25.88
2018-06-28T04:54:09.689Z,26.45
2018-06-28T04:55:09.681Z,26.70
2018-06-28T04:56:09.670Z,27.02
2018-06-28T04:57:09.669Z,27.02
2018-06-28T04:58:09.645Z,26.99
2018-06-28T04:59:09.634Z,27.32
2018-06-28T05:00:09.626Z,27.65
2018-06-28T05:01:09.646Z,27.64
2018-06-28T05:02:09.616Z,27.82
2018-06-28T05:03:09.594Z,27.98
2018-06-28T05:04:09.583Z,28.02
2018-06-28T05:05:09.579Z,28.04
2018-06-28T05:06:09.561Z,27.86
2018-06-28T05:07:09.624Z,28.22
2018-06-28T05:08:09.539Z,27.99
2018-06-28T05:09:09.532Z,27.86
2018-06-28T05:10:09.517Z,27.80
2018-06-28T05:11:09.506Z,28.20
2018-06-28T05:12:09.512Z,28.36
2018-06-28T05:13:09.485Z,28.81
2018-06-28T05:14:09.478Z,28.73
2018-06-28T05:15:09.468Z,28.78
2018-06-28T05:16:09.455Z,28.83
2018-06-28T05:17:09.505Z,28.32
2018-06-28T05:18:09.433Z,27.86
2018-06-28T05:19:09.422Z,27.90
2018-06-28T05:20:09.411Z,27.83
2018-06-28T05:21:09.402Z,28.19
2018-06-28T05:22:09.406Z,28.67
2018-06-28T05:23:09.379Z,28.72
2018-06-28T05:24:09.371Z,28.78
2018-06-28T05:25:09.379Z,28.90
2018-06-28T05:26:09.348Z,29.05
2018-06-28T05:27:09.337Z,29.29
2018-06-28T05:28:09.339Z,29.70
2018-06-28T05:29:09.364Z,29.90
2018-06-28T05:30:09.311Z,29.81
2018-06-28T05:31:09.293Z,29.66
2018-06-28T05:32:09.284Z,29.78
2018-06-28T05:33:09.286Z,29.10
2018-06-28T05:34:09.265Z,28.60
2018-06-28T05:35:09.260Z,29.44
2018-06-28T05:36:09.340Z,30.06
2018-06-28T05:37:09.231Z,30.99
2018-06-28T05:38:09.256Z,31.07
2018-06-28T05:39:09.210Z,31.66
2018-06-28T05:40:09.201Z,31.63
2018-06-28T05:41:09.191Z,31.68
2018-06-28T05:42:09.183Z,31.36
2018-06-28T05:43:09.170Z,30.37
2018-06-28T05:44:09.173Z,30.82
2018-06-28T05:45:09.198Z,30.66
2018-06-28T05:46:09.137Z,29.65
2018-06-28T05:47:09.225Z,30.03
2018-06-28T05:48:09.121Z,29.85
2018-06-28T05:49:09.120Z,30.31
2018-06-28T05:50:09.098Z,29.81
2018-06-28T05:51:09.084Z,29.94
2018-06-28T05:52:09.076Z,30.20
2018-06-28T05:53:09.069Z,30.74
2018-06-28T05:54:09.081Z,30.36
2018-06-28T05:55:09.042Z,30.93
2018-06-28T05:56:09.033Z,31.21
2018-06-28T05:57:09.021Z,30.67
2018-06-28T05:58:09.011Z,30.77
2018-06-28T05:59:09.018Z,30.88
2018-06-28T06:00:08.991Z,30.82
2018-06-28T06:01:08.979Z,30.91
2018-06-28T06:02:08.968Z,30.69
2018-06-28T06:03:08.960Z,29.38
2018-06-28T06:04:08.950Z,28.34
2018-06-28T06:05:08.958Z,28.60
2018-06-28T06:06:08.930Z,28.60
2018-06-28T06:07:08.918Z,28.83
2018-06-28T06:08:08.912Z,29.48
2018-06-28T06:09:08.899Z,29.05
2018-06-28T06:10:08.910Z,29.29
2018-06-28T06:11:08.880Z,29.42
2018-06-28T06:12:09.012Z,29.81
2018-06-28T06:13:08.857Z,29.84
2018-06-28T06:14:08.847Z,29.79
2018-06-28T06:15:08.841Z,29.47
2018-06-28T06:16:08.838Z,29.14
2018-06-28T06:17:08.816Z,29.33
2018-06-28T06:18:08.807Z,28.73
2018-06-28T06:19:08.799Z,28.66
2018-06-28T06:20:08.803Z,29.33
2018-06-28T06:21:08.788Z,29.84
2018-06-28T06:22:08.769Z,30.13
2018-06-28T06:23:08.757Z,29.79
2018-06-28T06:24:08.746Z,29.21
2018-06-28T06:25:08.733Z,29.01
2018-06-28T06:26:08.735Z,28.76
2018-06-28T06:27:08.714Z,28.39
2018-06-28T06:28:08.702Z,28.91
2018-06-28T06:29:08.694Z,29.54
2018-06-28T06:30:08.685Z,29.50
2018-06-28T06:31:08.685Z,30.24
2018-06-28T06:32:08.662Z,30.75
2018-06-28T06:33:08.653Z,30.99
2018-06-28T06:34:08.643Z,31.26
2018-06-28T06:35:08.633Z,31.31
2018-06-28T06:36:08.729Z,31.63
2018-06-28T06:37:08.694Z,32.09
2018-06-28T06:38:08.602Z,31.37
2018-06-28T06:39:08.594Z,30.67
2018-06-28T06:40:08.583Z,31.07
2018-06-28T06:41:08.570Z,31.59
2018-06-28T06:42:08.573Z,31.51
2018-06-28T06:43:08.553Z,31.38
2018-06-28T06:44:08.540Z,31.75
2018-06-28T06:45:08.533Z,31.86
2018-06-28T06:46:08.520Z,32.16
2018-06-28T06:47:08.525Z,32.19
2018-06-28T06:48:08.503Z,31.98
2018-06-28T06:49:08.495Z,32.20
2018-06-28T06:50:08.482Z,32.09
2018-06-28T06:51:08.480Z,32.53
2018-06-28T06:52:08.461Z,32.86
2018-06-28T06:53:08.465Z,33.36
2018-06-28T06:54:08.440Z,33.08
2018-06-28T06:55:08.432Z,32.37
2018-06-28T06:56:08.428Z,32.27
2018-06-28T06:57:08.411Z,31.77
2018-06-28T06:58:08.416Z,32.27
2018-06-28T06:59:08.394Z,32.53
2018-06-28T07:00:08.383Z,32.55
2018-06-28T07:01:08.371Z,32.77
2018-06-28T07:02:08.361Z,32.53
2018-06-28T07:03:08.370Z,31.15
2018-06-28T07:04:08.349Z,30.81
2018-06-28T07:05:08.338Z,31.66
2018-06-28T07:06:08.361Z,31.51
2018-06-28T07:07:08.315Z,30.85
2018-06-28T07:08:08.324Z,30.54
2018-06-28T07:09:08.295Z,31.34
2018-06-28T07:10:08.372Z,31.78
2018-06-28T07:11:08.277Z,31.75
2018-06-28T07:12:08.265Z,31.53
2018-06-28T07:13:08.255Z,31.73
2018-06-28T07:14:08.258Z,31.74
2018-06-28T07:15:08.238Z,31.94
2018-06-28T07:16:08.294Z,32.55
2018-06-28T07:17:08.213Z,32.55
2018-06-28T07:18:08.204Z,32.65
2018-06-28T07:19:08.209Z,33.01
2018-06-28T07:20:08.183Z,33.70
2018-06-28T07:21:08.182Z,33.98
2018-06-28T07:22:08.167Z,34.55
2018-06-28T07:23:08.283Z,34.42
2018-06-28T07:24:08.180Z,34.15
2018-06-28T07:25:08.136Z,33.52
2018-06-28T07:26:08.128Z,33.55
2018-06-28T07:27:08.116Z,33.87
2018-06-28T07:28:08.106Z,33.66
2018-06-28T07:29:08.098Z,33.68
2018-06-28T07:30:08.099Z,33.77
2018-06-28T07:31:08.081Z,33.89
2018-06-28T07:32:08.069Z,33.29
2018-06-28T07:33:08.085Z,33.52
2018-06-28T07:34:08.077Z,33.44
2018-06-28T07:35:08.053Z,32.87
2018-06-28T07:36:08.036Z,32.99
2018-06-28T07:37:08.023Z,33.20
2018-06-28T07:38:08.011Z,33.34
2018-06-28T07:39:08.004Z,33.44
2018-06-28T07:40:07.994Z,33.33
2018-06-28T07:41:07.997Z,33.02
2018-06-28T07:42:07.975Z,33.01
2018-06-28T07:43:07.964Z,33.09
2018-06-28T07:44:07.959Z,32.77
2018-06-28T07:45:07.946Z,33.08
2018-06-28T07:46:07.955Z,32.56
2018-06-28T07:47:07.928Z,32.33
2018-06-28T07:48:07.919Z,32.25
2018-06-28T07:49:07.940Z,32.43
2018-06-28T07:50:07.902Z,32.67
2018-06-28T07:51:07.904Z,32.25
2018-06-28T07:52:07.884Z,32.16
2018-06-28T07:53:07.872Z,32.56
2018-06-28T07:54:07.863Z,33.11
2018-06-28T07:55:07.852Z,33.05
2018-06-28T07:56:07.859Z,32.43
2018-06-28T07:57:07.833Z,32.55
2018-06-28T07:58:07.823Z,33.02
2018-06-28T07:59:07.814Z,33.12
2018-06-28T08:00:07.806Z,32.65
2018-06-28T08:01:07.794Z,33.14
2018-06-28T08:02:07.798Z,32.37
2018-06-28T08:03:07.776Z,32.31
2018-06-28T08:04:07.767Z,32.09
2018-06-28T08:05:07.765Z,31.87
2018-06-28T08:06:07.748Z,32.13
2018-06-28T08:07:07.752Z,32.43
2018-06-28T08:08:07.733Z,33.21
2018-06-28T08:09:07.723Z,34.39
2018-06-28T08:10:07.712Z,34.29
2018-06-28T08:11:07.701Z,34.55
2018-06-28T08:12:07.714Z,34.14
2018-06-28T08:13:07.683Z,34.89
2018-06-28T08:14:07.676Z,33.40
2018-06-28T08:15:07.665Z,33.63
2018-06-28T08:16:07.655Z,33.41
2018-06-28T08:17:07.649Z,33.71
2018-06-28T08:18:07.650Z,33.73
2018-06-28T08:19:07.631Z,34.05
2018-06-28T08:20:07.618Z,35.18
2018-06-28T08:21:07.609Z,35.94
2018-06-28T08:22:07.599Z,35.95
2018-06-28T08:23:07.627Z,36.34
2018-06-28T08:24:07.585Z,36.14
2018-06-28T08:25:07.576Z,36.04
2018-06-28T08:26:07.564Z,36.34
2018-06-28T08:27:07.556Z,36.43
2018-06-28T08:28:07.559Z,35.94
2018-06-28T08:29:07.537Z,35.36
2018-06-28T08:30:07.527Z,35.84
2018-06-28T08:31:07.518Z,35.86
2018-06-28T08:32:07.517Z,35.87
2018-06-28T08:33:07.517Z,36.08
2018-06-28T08:34:07.500Z,35.52
2018-06-28T08:35:07.483Z,35.21
2018-06-28T08:36:07.499Z,35.58
2018-06-28T08:37:07.467Z,35.90
2018-06-28T08:38:07.471Z,35.98
2018-06-28T08:39:07.451Z,36.41
2018-06-28T08:40:07.441Z,36.77
2018-06-28T08:41:07.434Z,36.85
2018-06-28T08:42:07.421Z,36.97
2018-06-28T08:43:07.432Z,37.22
2018-06-28T08:44:07.405Z,36.22
2018-06-28T08:45:07.402Z,35.69
2018-06-28T08:46:07.386Z,36.05
2018-06-28T08:47:07.381Z,35.84
2018-06-28T08:48:07.385Z,35.79
2018-06-28T08:49:07.398Z,35.64
2018-06-28T08:50:07.353Z,35.64
2018-06-28T08:51:07.348Z,35.28
2018-06-28T08:52:07.336Z,35.33
2018-06-28T08:53:07.329Z,35.06
2018-06-28T08:54:07.333Z,34.63
2018-06-28T08:55:07.311Z,34.17
2018-06-28T08:56:07.303Z,34.55
2018-06-28T08:57:07.298Z,34.89
2018-06-28T08:58:07.339Z,34.82
2018-06-28T08:59:07.295Z,35.31
2018-06-28T09:00:07.272Z,35.84
2018-06-28T09:01:07.262Z,36.01
2018-06-28T09:02:07.251Z,35.82
2018-06-28T09:03:07.243Z,35.50
2018-06-28T09:04:07.249Z,35.87
2018-06-28T09:05:07.224Z,36.25
2018-06-28T09:06:07.217Z,36.12
2018-06-28T09:07:07.208Z,36.55
2018-06-28T09:08:07.201Z,37.26
2018-06-28T09:09:07.191Z,37.08
2018-06-28T09:10:07.195Z,37.14
2018-06-28T09:11:07.179Z,37.27
2018-06-28T09:12:07.167Z,37.30
2018-06-28T09:13:07.162Z,37.41
2018-06-28T09:14:07.150Z,37.72
2018-06-28T09:15:07.155Z,36.62
2018-06-28T09:16:07.135Z,36.67
2018-06-28T09:17:07.132Z,36.37
2018-06-28T09:18:07.117Z,36.41
2018-06-28T09:19:07.107Z,36.80
2018-06-28T09:20:07.115Z,35.12
2018-06-28T09:21:07.093Z,34.17
2018-06-28T09:22:07.085Z,34.36
2018-06-28T09:23:07.189Z,33.50
2018-06-28T09:24:07.068Z,32.79
2018-06-28T09:25:07.074Z,32.47
2018-06-28T09:26:07.049Z,32.19
2018-06-28T09:27:07.046Z,32.09
2018-06-28T09:28:07.035Z,31.96
2018-06-28T09:29:07.029Z,30.77
2018-06-28T09:30:07.018Z,30.18
2018-06-28T09:31:07.031Z,29.68
2018-06-28T09:32:07.006Z,29.31
2018-06-28T09:33:06.987Z,30.45
2018-06-28T09:34:06.978Z,31.93
2018-06-28T09:35:06.969Z,33.06
2018-06-28T09:36:06.961Z,31.94
2018-06-28T09:37:06.966Z,30.91
2018-06-28T09:38:06.943Z,30.45
2018-06-28T09:39:06.933Z,29.46
2018-06-28T09:40:06.924Z,29.35
2018-06-28T09:41:06.916Z,29.14
2018-06-28T09:42:06.919Z,29.42
2018-06-28T09:43:06.896Z,31.46
2018-06-28T09:44:06.886Z,31.30
2018-06-28T09:45:06.875Z,30.93
2018-06-28T09:46:06.866Z,30.40
2018-06-28T09:47:06.879Z,29.85
2018-06-28T09:48:06.847Z,30.10
2018-06-28T09:49:06.843Z,32.01
2018-06-28T09:50:06.836Z,33.73
2018-06-28T09:51:06.819Z,35.31
2018-06-28T09:52:06.822Z,36.39
2018-06-28T09:53:06.804Z,36.67
2018-06-28T09:54:06.792Z,36.05
2018-06-28T09:55:06.784Z,35.79
2018-06-28T09:56:06.774Z,35.28
2018-06-28T09:57:06.779Z,35.31
2018-06-28T09:58:06.755Z,34.96
2018-06-28T09:59:06.747Z,34.96
2018-06-28T10:00:06.738Z,34.86
2018-06-28T10:01:06.729Z,34.94
2018-06-28T10:02:06.723Z,34.74
2018-06-28T10:03:06.725Z,34.61
2018-06-28T10:04:06.708Z,34.33
2018-06-28T10:05:06.696Z,33.31
2018-06-28T10:06:06.695Z,33.36
2018-06-28T10:07:06.683Z,33.31
2018-06-28T10:08:06.689Z,33.77
2018-06-28T10:09:06.675Z,33.98
2018-06-28T10:10:06.653Z,34.39
2018-06-28T10:11:06.649Z,34.89
2018-06-28T10:12:06.636Z,35.26
2018-06-28T10:13:06.642Z,35.53
2018-06-28T10:14:06.617Z,35.27
2018-06-28T10:15:06.615Z,35.42
2018-06-28T10:16:06.602Z,35.40
2018-06-28T10:17:06.598Z,35.76
2018-06-28T10:18:06.609Z,35.68
2018-06-28T10:19:06.577Z,35.11
2018-06-28T10:20:06.569Z,34.86
2018-06-28T10:21:06.571Z,35.15
2018-06-28T10:22:06.562Z,35.62
2018-06-28T10:23:06.573Z,35.57
2018-06-28T10:24:06.536Z,35.53
2018-06-28T10:25:06.556Z,35.79
2018-06-28T10:26:06.522Z,35.30
2018-06-28T10:27:06.512Z,35.53
2018-06-28T10:28:06.506Z,35.57
2018-06-28T10:29:06.513Z,35.26
2018-06-28T10:30:06.485Z,35.20
2018-06-28T10:31:06.478Z,35.16
2018-06-28T10:32:06.470Z,35.58
2018-06-28T10:33:06.474Z,36.32
2018-06-28T10:34:08.202Z,36.40
2018-06-28T10:35:06.455Z,35.96
2018-06-28T10:36:06.464Z,35.96
2018-06-28T10:37:06.429Z,35.90
2018-06-28T10:38:06.421Z,35.79
2018-06-28T10:39:06.470Z,35.34
2018-06-28T10:40:06.405Z,35.12
2018-06-28T10:41:06.395Z,34.72
2018-06-28T10:42:06.388Z,34.47
2018-06-28T10:43:06.379Z,34.47
2018-06-28T10:44:06.370Z,34.82
2018-06-28T10:45:06.376Z,35.13
2018-06-28T10:46:06.354Z,34.93
2018-06-28T10:47:06.348Z,35.21
2018-06-28T10:48:06.359Z,35.09
2018-06-28T10:49:06.350Z,35.02
2018-06-28T10:50:06.333Z,35.57
2018-06-28T10:51:06.312Z,36.05
2018-06-28T10:52:06.305Z,35.60
2018-06-28T10:53:06.297Z,35.82
2018-06-28T10:54:06.346Z,34.83
2018-06-28T10:55:06.293Z,34.58
2018-06-28T10:56:06.271Z,34.22
2018-06-28T10:57:06.263Z,33.74
2018-06-28T10:58:06.277Z,33.44
2018-06-28T10:59:06.246Z,33.29
2018-06-28T11:00:06.281Z,33.23
2018-06-28T11:01:06.236Z,32.61
2018-06-28T11:02:06.255Z,32.09
2018-06-28T11:03:06.275Z,32.03
2018-06-28T11:04:06.204Z,32.00
2018-06-28T11:05:06.218Z,31.96
2018-06-28T11:06:06.210Z,32.08
2018-06-28T11:07:06.208Z,31.81
2018-06-28T11:08:06.173Z,31.94
2018-06-28T11:09:06.167Z,31.90
2018-06-28T11:10:06.154Z,31.71
2018-06-28T11:11:06.156Z,31.67
2018-06-28T11:12:06.135Z,31.73
2018-06-28T11:13:06.128Z,31.78
2018-06-28T11:14:06.121Z,32.12
2018-06-28T11:15:06.110Z,32.18
2018-06-28T11:16:06.120Z,31.91
2018-06-28T11:17:06.093Z,31.96
2018-06-28T11:18:06.087Z,31.94
2018-06-28T11:19:06.079Z,31.75
2018-06-28T11:20:06.081Z,31.53
2018-06-28T11:21:06.061Z,31.38
2018-06-28T11:22:06.069Z,31.37
2018-06-28T11:23:06.046Z,31.51
2018-06-28T11:24:06.036Z,31.24
2018-06-28T11:25:06.031Z,30.97
2018-06-28T11:26:06.022Z,30.89
2018-06-28T11:27:06.031Z,30.48
2018-06-28T11:28:06.005Z,30.47
2018-06-28T11:29:05.998Z,30.52
2018-06-28T11:30:05.990Z,30.77
2018-06-28T11:31:06.005Z,30.82
2018-06-28T11:32:06.012Z,30.59
2018-06-28T11:33:05.964Z,30.21
2018-06-28T11:34:05.995Z,29.99
2018-06-28T11:35:05.953Z,30.00
2018-06-28T11:36:05.940Z,30.00
2018-06-28T11:37:05.932Z,30.16
2018-06-28T11:38:05.932Z,30.47
2018-06-28T11:39:05.914Z,30.43
2018-06-28T11:40:05.906Z,30.43
2018-06-28T11:41:05.895Z,30.36
2018-06-28T11:42:05.886Z,30.40
2018-06-28T11:43:05.892Z,30.52
2018-06-28T11:44:05.869Z,30.56
2018-06-28T11:45:05.862Z,30.63
2018-06-28T11:46:05.854Z,30.72
2018-06-28T11:47:05.846Z,30.65
2018-06-28T11:48:05.853Z,30.63
2018-06-28T11:49:05.828Z,30.70
2018-06-28T11:50:05.817Z,30.70
2018-06-28T11:51:05.807Z,30.52
2018-06-28T11:52:05.798Z,30.34
2018-06-28T11:53:05.792Z,30.44
2018-06-28T11:54:05.805Z,30.29
2018-06-28T11:55:05.770Z,30.13
2018-06-28T11:56:05.762Z,29.58
2018-06-28T11:57:05.758Z,29.60
2018-06-28T11:58:05.745Z,29.63
2018-06-28T11:59:05.745Z,29.65
2018-06-28T12:00:05.723Z,29.65
2018-06-28T12:01:05.774Z,29.66
2018-06-28T12:02:05.717Z,29.69
2018-06-28T12:03:05.693Z,29.72
2018-06-28T12:04:05.698Z,29.87
2018-06-28T12:05:05.675Z,29.85
2018-06-28T12:06:05.666Z,29.81
2018-06-28T12:07:05.658Z,29.81
2018-06-28T12:08:05.644Z,29.85
2018-06-28T12:09:05.654Z,29.78
2018-06-28T12:10:05.627Z,29.99
2018-06-28T12:11:05.616Z,29.87
2018-06-28T12:12:05.606Z,30.03
2018-06-28T12:13:05.595Z,30.06
2018-06-28T12:14:05.582Z,30.07
2018-06-28T12:15:05.589Z,30.27
2018-06-28T12:16:05.565Z,30.06
2018-06-28T12:17:05.554Z,30.07
2018-06-28T12:18:05.544Z,30.20
2018-06-28T12:19:05.532Z,30.20
2018-06-28T12:20:05.544Z,29.85
2018-06-28T12:21:05.514Z,29.99
2018-06-28T12:22:05.504Z,30.05
2018-06-28T12:23:05.494Z,30.20
2018-06-28T12:24:05.484Z,30.28
2018-06-28T12:25:05.473Z,30.22
2018-06-28T12:26:05.481Z,30.24
2018-06-28T12:27:05.453Z,30.28
2018-06-28T12:28:05.441Z,30.29
2018-06-28T12:29:05.433Z,30.27
2018-06-28T12:30:05.422Z,30.44
2018-06-28T12:31:05.507Z,30.45
2018-06-28T12:32:05.401Z,30.43
2018-06-28T12:33:05.391Z,30.70
2018-06-28T12:34:05.383Z,30.67
2018-06-28T12:35:05.370Z,30.52
2018-06-28T12:36:05.400Z,30.45
2018-06-28T12:37:05.355Z,30.25
2018-06-28T12:38:05.339Z,30.36
2018-06-28T12:39:05.367Z,30.20
2018-06-28T12:40:05.320Z,30.21
2018-06-28T12:41:05.313Z,30.27
2018-06-28T12:42:05.312Z,30.28
2018-06-28T12:43:05.292Z,30.18
2018-06-28T12:44:05.296Z,30.12
2018-06-28T12:45:05.268Z,30.07
2018-06-28T12:46:05.257Z,30.14
2018-06-28T12:47:05.263Z,30.22
2018-06-28T12:48:05.248Z,30.48
2018-06-28T12:49:05.226Z,30.47
2018-06-28T12:50:05.216Z,30.22
2018-06-28T12:51:05.235Z,30.40
2018-06-28T12:52:05.198Z,30.44